sensor_id;sensor_type;location;lat;lon;timestamp;temperature;humidity
55777;DHT22;54079;44.540;18.784;2023-12-20T00:01:50;6.50;94.30
55777;DHT22;54079;44.540;18.784;2023-12-20T00:04:16;6.40;94.40
55777;DHT22;54079;44.540;18.784;2023-12-20T00:06:42;6.40;94.10
55777;DHT22;54079;44.540;18.784;2023-12-20T00:09:08;6.00;93.70
55777;DHT22;54079;44.540;18.784;2023-12-20T00:11:34;6.00;94.50
55777;DHT22;54079;44.540;18.784;2023-12-20T00:14:00;6.10;94.50
55777;DHT22;54079;44.540;18.784;2023-12-20T00:16:26;6.00;94.70
55777;DHT22;54079;44.540;18.784;2023-12-20T00:18:52;6.10;95.60
55777;DHT22;54079;44.540;18.784;2023-12-20T00:21:18;6.00;95.10
55777;DHT22;54079;44.540;18.784;2023-12-20T00:23:44;6.10;95.00
55777;DHT22;54079;44.540;18.784;2023-12-20T00:26:10;6.10;95.00
55777;DHT22;54079;44.540;18.784;2023-12-20T00:28:35;6.10;95.50
55777;DHT22;54079;44.540;18.784;2023-12-20T00:31:01;6.10;95.00
55777;DHT22;54079;44.540;18.784;2023-12-20T00:33:27;6.00;94.00
55777;DHT22;54079;44.540;18.784;2023-12-20T00:35:53;6.00;94.10
55777;DHT22;54079;44.540;18.784;2023-12-20T00:38:19;5.90;94.40
55777;DHT22;54079;44.540;18.784;2023-12-20T00:40:45;5.80;94.00
55777;DHT22;54079;44.540;18.784;2023-12-20T00:43:12;5.70;94.80
55777;DHT22;54079;44.540;18.784;2023-12-20T00:45:38;5.80;95.30
55777;DHT22;54079;44.540;18.784;2023-12-20T00:48:05;5.80;94.40
55777;DHT22;54079;44.540;18.784;2023-12-20T00:50:31;5.90;94.60
55777;DHT22;54079;44.540;18.784;2023-12-20T00:52:57;6.00;94.70
55777;DHT22;54079;44.540;18.784;2023-12-20T00:55:23;6.00;94.00
55777;DHT22;54079;44.540;18.784;2023-12-20T00:57:49;6.00;94.70
55777;DHT22;54079;44.540;18.784;2023-12-20T01:00:15;6.00;93.60
55777;DHT22;54079;44.540;18.784;2023-12-20T01:02:41;6.00;93.50
55777;DHT22;54079;44.540;18.784;2023-12-20T01:05:07;5.90;94.30
55777;DHT22;54079;44.540;18.784;2023-12-20T01:07:35;6.00;94.80
55777;DHT22;54079;44.540;18.784;2023-12-20T01:10:01;6.10;95.20
55777;DHT22;54079;44.540;18.784;2023-12-20T01:12:27;6.20;93.60
55777;DHT22;54079;44.540;18.784;2023-12-20T01:14:53;6.00;93.20
55777;DHT22;54079;44.540;18.784;2023-12-20T01:17:19;6.10;94.60
55777;DHT22;54079;44.540;18.784;2023-12-20T01:19:45;6.10;94.30
55777;DHT22;54079;44.540;18.784;2023-12-20T01:22:11;6.20;94.70
55777;DHT22;54079;44.540;18.784;2023-12-20T01:24:36;6.30;94.70
55777;DHT22;54079;44.540;18.784;2023-12-20T01:27:02;6.30;94.70
55777;DHT22;54079;44.540;18.784;2023-12-20T01:29:28;6.30;94.00
55777;DHT22;54079;44.540;18.784;2023-12-20T01:31:54;6.20;94.10
55777;DHT22;54079;44.540;18.784;2023-12-20T01:34:20;6.20;93.70
55777;DHT22;54079;44.540;18.784;2023-12-20T01:36:46;6.10;94.10
55777;DHT22;54079;44.540;18.784;2023-12-20T01:39:12;6.00;94.20
55777;DHT22;54079;44.540;18.784;2023-12-20T01:41:38;6.00;95.30
55777;DHT22;54079;44.540;18.784;2023-12-20T01:44:04;6.00;96.10
55777;DHT22;54079;44.540;18.784;2023-12-20T01:46:30;6.00;95.70
55777;DHT22;54079;44.540;18.784;2023-12-20T01:48:56;5.90;95.70
55777;DHT22;54079;44.540;18.784;2023-12-20T01:51:22;5.70;95.00
55777;DHT22;54079;44.540;18.784;2023-12-20T01:53:49;5.60;95.00
55777;DHT22;54079;44.540;18.784;2023-12-20T01:56:16;5.40;94.70
55777;DHT22;54079;44.540;18.784;2023-12-20T01:58:46;5.50;95.30
55777;DHT22;54079;44.540;18.784;2023-12-20T02:01:13;5.70;95.60
55777;DHT22;54079;44.540;18.784;2023-12-20T02:03:41;5.60;94.40
55777;DHT22;54079;44.540;18.784;2023-12-20T02:06:08;5.50;94.80
55777;DHT22;54079;44.540;18.784;2023-12-20T02:08:35;5.50;94.40
55777;DHT22;54079;44.540;18.784;2023-12-20T02:11:01;5.50;95.00
55777;DHT22;54079;44.540;18.784;2023-12-20T02:13:27;5.60;95.10
55777;DHT22;54079;44.540;18.784;2023-12-20T02:15:55;5.70;95.30
55777;DHT22;54079;44.540;18.784;2023-12-20T02:18:21;5.70;94.60
55777;DHT22;54079;44.540;18.784;2023-12-20T02:20:47;5.70;94.30
55777;DHT22;54079;44.540;18.784;2023-12-20T02:23:13;5.60;94.60
55777;DHT22;54079;44.540;18.784;2023-12-20T02:25:39;5.50;94.00
55777;DHT22;54079;44.540;18.784;2023-12-20T02:28:05;5.50;95.00
55777;DHT22;54079;44.540;18.784;2023-12-20T02:30:32;5.60;94.90
55777;DHT22;54079;44.540;18.784;2023-12-20T02:32:59;5.60;95.40
55777;DHT22;54079;44.540;18.784;2023-12-20T02:35:27;5.60;94.00
55777;DHT22;54079;44.540;18.784;2023-12-20T02:37:52;5.50;94.10
55777;DHT22;54079;44.540;18.784;2023-12-20T02:40:18;5.60;94.30
55777;DHT22;54079;44.540;18.784;2023-12-20T02:42:44;5.60;94.10
55777;DHT22;54079;44.540;18.784;2023-12-20T02:45:10;5.60;93.80
55777;DHT22;54079;44.540;18.784;2023-12-20T02:47:36;5.60;94.60
55777;DHT22;54079;44.540;18.784;2023-12-20T02:50:02;5.40;94.10
55777;DHT22;54079;44.540;18.784;2023-12-20T02:52:29;5.40;96.10
55777;DHT22;54079;44.540;18.784;2023-12-20T02:54:55;5.50;96.10
55777;DHT22;54079;44.540;18.784;2023-12-20T02:57:21;5.50;95.60
55777;DHT22;54079;44.540;18.784;2023-12-20T02:59:47;5.50;96.10
55777;DHT22;54079;44.540;18.784;2023-12-20T03:02:13;5.60;95.80
55777;DHT22;54079;44.540;18.784;2023-12-20T03:04:39;5.60;94.20
55777;DHT22;54079;44.540;18.784;2023-12-20T03:07:04;5.50;93.90
55777;DHT22;54079;44.540;18.784;2023-12-20T03:09:30;5.50;94.20
55777;DHT22;54079;44.540;18.784;2023-12-20T03:11:56;5.50;94.30
55777;DHT22;54079;44.540;18.784;2023-12-20T03:14:22;5.40;95.00
55777;DHT22;54079;44.540;18.784;2023-12-20T03:16:51;5.50;95.10
55777;DHT22;54079;44.540;18.784;2023-12-20T03:19:20;5.50;94.20
55777;DHT22;54079;44.540;18.784;2023-12-20T03:21:46;5.30;93.90
55777;DHT22;54079;44.540;18.784;2023-12-20T03:24:12;5.20;95.50
55777;DHT22;54079;44.540;18.784;2023-12-20T03:26:38;5.30;94.70
55777;DHT22;54079;44.540;18.784;2023-12-20T03:29:04;5.40;95.90
55777;DHT22;54079;44.540;18.784;2023-12-20T03:31:30;5.50;95.80
55777;DHT22;54079;44.540;18.784;2023-12-20T03:33:56;5.60;95.50
55777;DHT22;54079;44.540;18.784;2023-12-20T03:36:22;5.70;94.90
55777;DHT22;54079;44.540;18.784;2023-12-20T03:38:48;5.50;94.20
55777;DHT22;54079;44.540;18.784;2023-12-20T03:41:14;5.60;95.20
55777;DHT22;54079;44.540;18.784;2023-12-20T03:43:40;5.60;96.20
55777;DHT22;54079;44.540;18.784;2023-12-20T03:46:08;5.60;94.40
55777;DHT22;54079;44.540;18.784;2023-12-20T03:48:34;5.70;94.20
55777;DHT22;54079;44.540;18.784;2023-12-20T03:51:00;5.70;94.80
55777;DHT22;54079;44.540;18.784;2023-12-20T03:53:26;5.70;94.30
55777;DHT22;54079;44.540;18.784;2023-12-20T03:55:52;5.60;94.70
55777;DHT22;54079;44.540;18.784;2023-12-20T03:58:18;5.30;93.90
55777;DHT22;54079;44.540;18.784;2023-12-20T04:00:44;5.40;94.80
55777;DHT22;54079;44.540;18.784;2023-12-20T04:03:10;5.40;94.30
55777;DHT22;54079;44.540;18.784;2023-12-20T04:05:40;5.50;94.50
55777;DHT22;54079;44.540;18.784;2023-12-20T04:08:07;5.50;94.30
55777;DHT22;54079;44.540;18.784;2023-12-20T04:10:33;5.40;94.10
55777;DHT22;54079;44.540;18.784;2023-12-20T04:12:59;5.30;94.40
55777;DHT22;54079;44.540;18.784;2023-12-20T04:15:25;5.40;95.80
55777;DHT22;54079;44.540;18.784;2023-12-20T04:17:51;5.40;94.10
55777;DHT22;54079;44.540;18.784;2023-12-20T04:20:17;5.30;94.00
55777;DHT22;54079;44.540;18.784;2023-12-20T04:22:43;5.20;94.20
55777;DHT22;54079;44.540;18.784;2023-12-20T04:25:09;5.30;94.50
55777;DHT22;54079;44.540;18.784;2023-12-20T04:27:35;5.30;93.90
55777;DHT22;54079;44.540;18.784;2023-12-20T04:30:01;5.30;94.00
55777;DHT22;54079;44.540;18.784;2023-12-20T04:32:27;5.30;94.30
55777;DHT22;54079;44.540;18.784;2023-12-20T04:34:53;5.20;94.30
55777;DHT22;54079;44.540;18.784;2023-12-20T04:37:19;5.10;94.50
55777;DHT22;54079;44.540;18.784;2023-12-20T04:39:45;5.10;94.90
55777;DHT22;54079;44.540;18.784;2023-12-20T04:42:11;5.00;95.10
55777;DHT22;54079;44.540;18.784;2023-12-20T04:44:37;5.00;95.00
55777;DHT22;54079;44.540;18.784;2023-12-20T04:47:03;5.10;94.90
55777;DHT22;54079;44.540;18.784;2023-12-20T04:49:29;5.00;94.90
55777;DHT22;54079;44.540;18.784;2023-12-20T04:51:55;4.80;94.50
55777;DHT22;54079;44.540;18.784;2023-12-20T04:54:22;4.70;94.70
55777;DHT22;54079;44.540;18.784;2023-12-20T04:56:48;4.80;94.50
55777;DHT22;54079;44.540;18.784;2023-12-20T04:59:14;4.90;95.40
55777;DHT22;54079;44.540;18.784;2023-12-20T05:01:40;5.00;95.20
55777;DHT22;54079;44.540;18.784;2023-12-20T05:04:07;5.10;95.40
55777;DHT22;54079;44.540;18.784;2023-12-20T05:06:33;5.20;95.40
55777;DHT22;54079;44.540;18.784;2023-12-20T05:08:59;5.10;94.10
55777;DHT22;54079;44.540;18.784;2023-12-20T05:11:25;5.10;94.80
55777;DHT22;54079;44.540;18.784;2023-12-20T05:13:51;5.10;94.00
55777;DHT22;54079;44.540;18.784;2023-12-20T05:16:17;5.10;94.60
55777;DHT22;54079;44.540;18.784;2023-12-20T05:18:48;5.10;94.50
55777;DHT22;54079;44.540;18.784;2023-12-20T05:21:14;5.20;95.40
55777;DHT22;54079;44.540;18.784;2023-12-20T05:23:40;5.30;95.60
55777;DHT22;54079;44.540;18.784;2023-12-20T05:26:06;5.20;93.50
55777;DHT22;54079;44.540;18.784;2023-12-20T05:28:32;5.10;93.70
55777;DHT22;54079;44.540;18.784;2023-12-20T05:30:58;5.30;93.80
55777;DHT22;54079;44.540;18.784;2023-12-20T05:33:24;5.20;94.00
55777;DHT22;54079;44.540;18.784;2023-12-20T05:35:50;5.20;93.90
55777;DHT22;54079;44.540;18.784;2023-12-20T05:38:16;5.10;92.90
55777;DHT22;54079;44.540;18.784;2023-12-20T05:40:42;5.20;93.10
55777;DHT22;54079;44.540;18.784;2023-12-20T05:43:08;5.20;93.60
55777;DHT22;54079;44.540;18.784;2023-12-20T05:45:34;5.10;93.40
55777;DHT22;54079;44.540;18.784;2023-12-20T05:48:00;5.00;94.20
55777;DHT22;54079;44.540;18.784;2023-12-20T05:50:26;5.00;93.80
55777;DHT22;54079;44.540;18.784;2023-12-20T05:52:52;4.80;94.00
55777;DHT22;54079;44.540;18.784;2023-12-20T05:55:19;4.70;94.90
55777;DHT22;54079;44.540;18.784;2023-12-20T05:57:45;4.70;95.10
55777;DHT22;54079;44.540;18.784;2023-12-20T06:00:12;4.70;95.50
55777;DHT22;54079;44.540;18.784;2023-12-20T06:02:39;4.80;95.80
55777;DHT22;54079;44.540;18.784;2023-12-20T06:05:05;4.80;95.50
55777;DHT22;54079;44.540;18.784;2023-12-20T06:07:31;4.90;94.60
55777;DHT22;54079;44.540;18.784;2023-12-20T06:09:57;5.00;95.20
55777;DHT22;54079;44.540;18.784;2023-12-20T06:12:23;5.00;94.50
55777;DHT22;54079;44.540;18.784;2023-12-20T06:14:49;4.80;93.80
55777;DHT22;54079;44.540;18.784;2023-12-20T06:17:15;4.80;95.30
55777;DHT22;54079;44.540;18.784;2023-12-20T06:19:41;4.90;94.70
55777;DHT22;54079;44.540;18.784;2023-12-20T06:22:10;4.90;94.30
55777;DHT22;54079;44.540;18.784;2023-12-20T06:24:36;5.10;94.30
55777;DHT22;54079;44.540;18.784;2023-12-20T06:27:02;5.20;94.00
55777;DHT22;54079;44.540;18.784;2023-12-20T06:29:28;5.20;93.60
55777;DHT22;54079;44.540;18.784;2023-12-20T06:31:54;5.30;94.00
55777;DHT22;54079;44.540;18.784;2023-12-20T06:34:20;5.40;93.60
55777;DHT22;54079;44.540;18.784;2023-12-20T06:36:46;5.40;93.80
55777;DHT22;54079;44.540;18.784;2023-12-20T06:39:12;5.50;94.20
55777;DHT22;54079;44.540;18.784;2023-12-20T06:41:39;5.60;93.10
55777;DHT22;54079;44.540;18.784;2023-12-20T06:44:05;5.50;92.70
55777;DHT22;54079;44.540;18.784;2023-12-20T06:46:32;5.40;92.00
55777;DHT22;54079;44.540;18.784;2023-12-20T06:48:58;5.50;92.10
55777;DHT22;54079;44.540;18.784;2023-12-20T06:51:24;5.50;92.70
55777;DHT22;54079;44.540;18.784;2023-12-20T06:53:52;5.50;92.60
55777;DHT22;54079;44.540;18.784;2023-12-20T06:56:18;5.40;93.00
55777;DHT22;54079;44.540;18.784;2023-12-20T06:58:44;5.50;92.70
55777;DHT22;54079;44.540;18.784;2023-12-20T07:01:16;5.20;92.70
55777;DHT22;54079;44.540;18.784;2023-12-20T07:03:43;5.10;93.10
55777;DHT22;54079;44.540;18.784;2023-12-20T07:06:09;5.30;93.40
55777;DHT22;54079;44.540;18.784;2023-12-20T07:08:35;5.60;93.50
55777;DHT22;54079;44.540;18.784;2023-12-20T07:11:02;5.80;92.60
55777;DHT22;54079;44.540;18.784;2023-12-20T07:13:28;5.80;92.90
55777;DHT22;54079;44.540;18.784;2023-12-20T07:15:54;5.80;92.30
55777;DHT22;54079;44.540;18.784;2023-12-20T07:18:19;5.90;92.30
55777;DHT22;54079;44.540;18.784;2023-12-20T07:20:45;5.80;91.80
55777;DHT22;54079;44.540;18.784;2023-12-20T07:23:11;5.90;92.10
55777;DHT22;54079;44.540;18.784;2023-12-20T07:25:37;5.80;91.50
55777;DHT22;54079;44.540;18.784;2023-12-20T07:28:03;5.90;92.30
55777;DHT22;54079;44.540;18.784;2023-12-20T07:30:30;6.00;92.30
55777;DHT22;54079;44.540;18.784;2023-12-20T07:32:56;6.20;92.50
55777;DHT22;54079;44.540;18.784;2023-12-20T07:35:23;6.30;92.40
55777;DHT22;54079;44.540;18.784;2023-12-20T07:37:49;6.40;91.70
55777;DHT22;54079;44.540;18.784;2023-12-20T07:40:15;6.40;91.30
55777;DHT22;54079;44.540;18.784;2023-12-20T07:42:42;6.20;90.90
55777;DHT22;54079;44.540;18.784;2023-12-20T07:45:09;6.30;91.60
55777;DHT22;54079;44.540;18.784;2023-12-20T07:47:36;6.40;91.10
55777;DHT22;54079;44.540;18.784;2023-12-20T07:50:03;6.30;91.50
55777;DHT22;54079;44.540;18.784;2023-12-20T07:52:32;6.50;91.70
55777;DHT22;54079;44.540;18.784;2023-12-20T07:54:58;6.80;91.30
55777;DHT22;54079;44.540;18.784;2023-12-20T07:57:24;7.80;90.10
55777;DHT22;54079;44.540;18.784;2023-12-20T07:59:50;8.10;88.80
55777;DHT22;54079;44.540;18.784;2023-12-20T08:02:16;10.30;84.70
55777;DHT22;54079;44.540;18.784;2023-12-20T08:04:42;12.20;82.40
55777;DHT22;54079;44.540;18.784;2023-12-20T08:07:08;14.90;74.80
55777;DHT22;54079;44.540;18.784;2023-12-20T08:09:34;17.40;69.10
55777;DHT22;54079;44.540;18.784;2023-12-20T08:12:02;20.50;62.60
55777;DHT22;54079;44.540;18.784;2023-12-20T08:14:28;23.40;56.90
55777;DHT22;54079;44.540;18.784;2023-12-20T08:16:55;23.90;55.40
55777;DHT22;54079;44.540;18.784;2023-12-20T08:19:21;23.70;53.30
55777;DHT22;54079;44.540;18.784;2023-12-20T08:21:47;25.60;51.90
55777;DHT22;54079;44.540;18.784;2023-12-20T08:24:13;27.20;47.80
55777;DHT22;54079;44.540;18.784;2023-12-20T08:26:39;28.20;47.00
55777;DHT22;54079;44.540;18.784;2023-12-20T08:29:05;29.20;46.50
55777;DHT22;54079;44.540;18.784;2023-12-20T08:31:31;29.70;44.20
55777;DHT22;54079;44.540;18.784;2023-12-20T08:33:57;30.00;44.30
55777;DHT22;54079;44.540;18.784;2023-12-20T08:36:23;30.50;43.50
55777;DHT22;54079;44.540;18.784;2023-12-20T08:38:49;30.60;44.20
55777;DHT22;54079;44.540;18.784;2023-12-20T08:41:17;31.00;44.20
55777;DHT22;54079;44.540;18.784;2023-12-20T08:43:43;31.20;42.20
55777;DHT22;54079;44.540;18.784;2023-12-20T08:46:09;30.70;40.50
55777;DHT22;54079;44.540;18.784;2023-12-20T08:48:35;30.50;40.80
55777;DHT22;54079;44.540;18.784;2023-12-20T08:51:01;30.40;41.50
55777;DHT22;54079;44.540;18.784;2023-12-20T08:53:27;30.40;45.50
55777;DHT22;54079;44.540;18.784;2023-12-20T08:55:54;30.70;42.00
55777;DHT22;54079;44.540;18.784;2023-12-20T08:58:19;30.90;43.30
55777;DHT22;54079;44.540;18.784;2023-12-20T09:00:45;31.00;43.50
55777;DHT22;54079;44.540;18.784;2023-12-20T09:03:11;31.00;45.30
55777;DHT22;54079;44.540;18.784;2023-12-20T09:05:37;30.40;43.00
55777;DHT22;54079;44.540;18.784;2023-12-20T09:08:04;29.90;43.40
55777;DHT22;54079;44.540;18.784;2023-12-20T09:10:31;29.20;44.30
55777;DHT22;54079;44.540;18.784;2023-12-20T09:12:57;28.30;45.90
55777;DHT22;54079;44.540;18.784;2023-12-20T09:15:24;27.60;46.80
55777;DHT22;54079;44.540;18.784;2023-12-20T09:17:51;26.70;48.90
55777;DHT22;54079;44.540;18.784;2023-12-20T09:20:17;25.60;48.90
55777;DHT22;54079;44.540;18.784;2023-12-20T09:22:43;24.10;49.90
55777;DHT22;54079;44.540;18.784;2023-12-20T09:25:12;22.60;52.10
55777;DHT22;54079;44.540;18.784;2023-12-20T09:27:40;21.60;53.50
55777;DHT22;54079;44.540;18.784;2023-12-20T09:30:07;20.50;52.90
55777;DHT22;54079;44.540;18.784;2023-12-20T09:32:33;19.60;52.20
55777;DHT22;54079;44.540;18.784;2023-12-20T09:34:59;19.00;57.90
55777;DHT22;54079;44.540;18.784;2023-12-20T09:37:29;18.20;58.10
55777;DHT22;54079;44.540;18.784;2023-12-20T09:39:55;17.40;59.30
55777;DHT22;54079;44.540;18.784;2023-12-20T09:42:29;16.70;60.90
55777;DHT22;54079;44.540;18.784;2023-12-20T09:44:57;16.10;61.90
55777;DHT22;54079;44.540;18.784;2023-12-20T09:47:25;15.70;64.10
55777;DHT22;54079;44.540;18.784;2023-12-20T09:49:51;15.30;63.60
55777;DHT22;54079;44.540;18.784;2023-12-20T09:52:18;14.80;60.90
55777;DHT22;54079;44.540;18.784;2023-12-20T09:54:46;14.50;64.40
55777;DHT22;54079;44.540;18.784;2023-12-20T09:57:13;14.50;65.10
55777;DHT22;54079;44.540;18.784;2023-12-20T09:59:40;14.50;66.10
55777;DHT22;54079;44.540;18.784;2023-12-20T10:02:12;14.50;64.40
55777;DHT22;54079;44.540;18.784;2023-12-20T10:04:42;14.50;67.50
55777;DHT22;54079;44.540;18.784;2023-12-20T10:07:12;14.50;69.30
55777;DHT22;54079;44.540;18.784;2023-12-20T10:09:38;14.50;69.50
55777;DHT22;54079;44.540;18.784;2023-12-20T10:12:05;14.50;69.50
55777;DHT22;54079;44.540;18.784;2023-12-20T10:14:32;14.60;66.20
55777;DHT22;54079;44.540;18.784;2023-12-20T10:17:05;14.70;70.30
55777;DHT22;54079;44.540;18.784;2023-12-20T10:19:32;14.70;69.60
55777;DHT22;54079;44.540;18.784;2023-12-20T10:22:04;14.70;69.10
55777;DHT22;54079;44.540;18.784;2023-12-20T10:24:30;14.80;70.10
55777;DHT22;54079;44.540;18.784;2023-12-20T10:27:03;14.80;66.40
55777;DHT22;54079;44.540;18.784;2023-12-20T10:29:36;14.90;68.90
55777;DHT22;54079;44.540;18.784;2023-12-20T10:32:24;14.80;66.80
55777;DHT22;54079;44.540;18.784;2023-12-20T10:34:55;14.80;68.40
55777;DHT22;54079;44.540;18.784;2023-12-20T10:37:21;14.80;70.40
55777;DHT22;54079;44.540;18.784;2023-12-20T10:39:52;14.90;70.90
55777;DHT22;54079;44.540;18.784;2023-12-20T10:42:31;15.00;71.10
55777;DHT22;54079;44.540;18.784;2023-12-20T10:44:59;15.00;68.80
55777;DHT22;54079;44.540;18.784;2023-12-20T10:47:26;14.90;68.20
55777;DHT22;54079;44.540;18.784;2023-12-20T10:49:54;15.00;68.30
55777;DHT22;54079;44.540;18.784;2023-12-20T10:52:23;15.00;67.20
55777;DHT22;54079;44.540;18.784;2023-12-20T10:54:50;15.20;69.60
55777;DHT22;54079;44.540;18.784;2023-12-20T10:57:18;15.20;69.40
55777;DHT22;54079;44.540;18.784;2023-12-20T10:59:45;15.20;65.10
55777;DHT22;54079;44.540;18.784;2023-12-20T11:02:14;15.20;63.50
55777;DHT22;54079;44.540;18.784;2023-12-20T11:04:46;15.20;65.60
55777;DHT22;54079;44.540;18.784;2023-12-20T11:07:21;15.30;65.80
55777;DHT22;54079;44.540;18.784;2023-12-20T11:10:01;15.40;66.30
55777;DHT22;54079;44.540;18.784;2023-12-20T11:12:52;15.50;65.10
55777;DHT22;54079;44.540;18.784;2023-12-20T11:15:20;15.60;66.00
55777;DHT22;54079;44.540;18.784;2023-12-20T11:17:47;15.70;68.40
55777;DHT22;54079;44.540;18.784;2023-12-20T11:20:39;15.80;66.40
55777;DHT22;54079;44.540;18.784;2023-12-20T11:23:05;15.80;64.40
55777;DHT22;54079;44.540;18.784;2023-12-20T11:25:47;15.90;65.30
55777;DHT22;54079;44.540;18.784;2023-12-20T11:28:14;16.00;61.40
55777;DHT22;54079;44.540;18.784;2023-12-20T11:30:53;16.10;68.00
55777;DHT22;54079;44.540;18.784;2023-12-20T11:33:29;16.00;62.20
55777;DHT22;54079;44.540;18.784;2023-12-20T11:35:59;16.20;63.70
55777;DHT22;54079;44.540;18.784;2023-12-20T11:38:26;16.10;61.10
55777;DHT22;54079;44.540;18.784;2023-12-20T11:40:54;16.10;61.30
55777;DHT22;54079;44.540;18.784;2023-12-20T11:43:37;16.10;60.70
55777;DHT22;54079;44.540;18.784;2023-12-20T11:46:08;16.10;61.10
55777;DHT22;54079;44.540;18.784;2023-12-20T11:48:39;15.90;63.20
55777;DHT22;54079;44.540;18.784;2023-12-20T11:51:10;16.00;63.30
55777;DHT22;54079;44.540;18.784;2023-12-20T11:53:37;15.90;62.50
55777;DHT22;54079;44.540;18.784;2023-12-20T11:56:04;15.80;63.20
55777;DHT22;54079;44.540;18.784;2023-12-20T11:58:31;15.80;63.90
55777;DHT22;54079;44.540;18.784;2023-12-20T12:00:57;15.90;61.90
55777;DHT22;54079;44.540;18.784;2023-12-20T12:03:23;15.90;60.00
55777;DHT22;54079;44.540;18.784;2023-12-20T12:05:49;15.80;60.80
55777;DHT22;54079;44.540;18.784;2023-12-20T12:08:17;15.70;60.90
55777;DHT22;54079;44.540;18.784;2023-12-20T12:10:44;15.60;60.70
55777;DHT22;54079;44.540;18.784;2023-12-20T12:13:11;15.70;59.60
55777;DHT22;54079;44.540;18.784;2023-12-20T12:15:37;15.50;59.90
55777;DHT22;54079;44.540;18.784;2023-12-20T12:18:03;15.40;60.00
55777;DHT22;54079;44.540;18.784;2023-12-20T12:20:31;15.20;59.50
55777;DHT22;54079;44.540;18.784;2023-12-20T12:23:23;14.90;58.60
55777;DHT22;54079;44.540;18.784;2023-12-20T12:25:52;14.80;59.10
55777;DHT22;54079;44.540;18.784;2023-12-20T12:28:21;14.90;59.90
55777;DHT22;54079;44.540;18.784;2023-12-20T12:30:59;14.80;60.20
55777;DHT22;54079;44.540;18.784;2023-12-20T12:33:26;14.70;59.20
55777;DHT22;54079;44.540;18.784;2023-12-20T12:35:52;14.60;60.80
55777;DHT22;54079;44.540;18.784;2023-12-20T12:38:22;14.50;59.90
55777;DHT22;54079;44.540;18.784;2023-12-20T12:40:50;14.50;61.20
55777;DHT22;54079;44.540;18.784;2023-12-20T12:43:19;14.30;60.70
55777;DHT22;54079;44.540;18.784;2023-12-20T12:45:45;14.20;61.70
55777;DHT22;54079;44.540;18.784;2023-12-20T12:48:11;13.70;62.10
55777;DHT22;54079;44.540;18.784;2023-12-20T12:50:37;13.30;63.10
55777;DHT22;54079;44.540;18.784;2023-12-20T12:53:03;13.10;63.60
55777;DHT22;54079;44.540;18.784;2023-12-20T12:55:29;12.90;64.90
55777;DHT22;54079;44.540;18.784;2023-12-20T12:57:55;12.40;66.00
55777;DHT22;54079;44.540;18.784;2023-12-20T13:00:21;12.40;67.20
55777;DHT22;54079;44.540;18.784;2023-12-20T13:02:47;12.10;67.90
55777;DHT22;54079;44.540;18.784;2023-12-20T13:05:13;12.10;67.10
55777;DHT22;54079;44.540;18.784;2023-12-20T13:07:39;12.00;67.60
55777;DHT22;54079;44.540;18.784;2023-12-20T13:10:05;12.20;67.90
55777;DHT22;54079;44.540;18.784;2023-12-20T13:12:32;12.00;67.90
55777;DHT22;54079;44.540;18.784;2023-12-20T13:14:58;11.70;67.80
55777;DHT22;54079;44.540;18.784;2023-12-20T13:17:24;11.60;69.00
55777;DHT22;54079;44.540;18.784;2023-12-20T13:19:50;11.60;69.40
55777;DHT22;54079;44.540;18.784;2023-12-20T13:22:16;11.30;69.40
55777;DHT22;54079;44.540;18.784;2023-12-20T13:24:42;11.30;70.20
55777;DHT22;54079;44.540;18.784;2023-12-20T13:27:10;11.20;69.70
55777;DHT22;54079;44.540;18.784;2023-12-20T13:29:36;11.20;70.40
55777;DHT22;54079;44.540;18.784;2023-12-20T13:32:02;11.30;70.40
55777;DHT22;54079;44.540;18.784;2023-12-20T13:34:29;11.20;71.00
55777;DHT22;54079;44.540;18.784;2023-12-20T13:36:55;11.00;70.90
55777;DHT22;54079;44.540;18.784;2023-12-20T13:39:22;11.10;71.30
55777;DHT22;54079;44.540;18.784;2023-12-20T13:41:48;11.00;72.60
55777;DHT22;54079;44.540;18.784;2023-12-20T13:44:14;11.20;71.60
55777;DHT22;54079;44.540;18.784;2023-12-20T13:46:41;11.20;72.00
55777;DHT22;54079;44.540;18.784;2023-12-20T13:49:07;11.40;71.90
55777;DHT22;54079;44.540;18.784;2023-12-20T13:51:33;11.50;70.30
55777;DHT22;54079;44.540;18.784;2023-12-20T13:53:59;11.40;69.40
55777;DHT22;54079;44.540;18.784;2023-12-20T13:56:25;11.40;69.60
55777;DHT22;54079;44.540;18.784;2023-12-20T13:58:51;11.20;69.20
55777;DHT22;54079;44.540;18.784;2023-12-20T14:01:17;11.20;70.00
55777;DHT22;54079;44.540;18.784;2023-12-20T14:03:43;11.10;70.30
55777;DHT22;54079;44.540;18.784;2023-12-20T14:06:10;11.00;69.80
55777;DHT22;54079;44.540;18.784;2023-12-20T14:08:36;11.00;69.00
55777;DHT22;54079;44.540;18.784;2023-12-20T14:11:02;11.00;68.70
55777;DHT22;54079;44.540;18.784;2023-12-20T14:13:28;11.00;68.10
55777;DHT22;54079;44.540;18.784;2023-12-20T14:15:54;11.00;68.70
55777;DHT22;54079;44.540;18.784;2023-12-20T14:18:20;11.10;68.40
55777;DHT22;54079;44.540;18.784;2023-12-20T14:20:48;11.00;69.00
55777;DHT22;54079;44.540;18.784;2023-12-20T14:23:13;11.00;69.30
55777;DHT22;54079;44.540;18.784;2023-12-20T14:25:42;11.00;68.90
55777;DHT22;54079;44.540;18.784;2023-12-20T14:28:08;11.00;69.60
55777;DHT22;54079;44.540;18.784;2023-12-20T14:30:35;11.00;69.60
55777;DHT22;54079;44.540;18.784;2023-12-20T14:33:04;10.80;68.10
55777;DHT22;54079;44.540;18.784;2023-12-20T14:35:30;10.70;69.40
55777;DHT22;54079;44.540;18.784;2023-12-20T14:37:56;10.80;69.70
55777;DHT22;54079;44.540;18.784;2023-12-20T14:40:23;10.80;70.00
55777;DHT22;54079;44.540;18.784;2023-12-20T14:42:49;10.80;70.20
55777;DHT22;54079;44.540;18.784;2023-12-20T14:45:16;10.50;69.00
55777;DHT22;54079;44.540;18.784;2023-12-20T14:47:42;10.60;69.60
55777;DHT22;54079;44.540;18.784;2023-12-20T14:50:09;10.60;71.40
55777;DHT22;54079;44.540;18.784;2023-12-20T14:52:36;10.30;71.00
55777;DHT22;54079;44.540;18.784;2023-12-20T14:55:02;10.40;72.90
55777;DHT22;54079;44.540;18.784;2023-12-20T14:57:29;10.20;71.80
55777;DHT22;54079;44.540;18.784;2023-12-20T14:59:56;10.10;72.10
55777;DHT22;54079;44.540;18.784;2023-12-20T15:02:22;10.00;72.80
55777;DHT22;54079;44.540;18.784;2023-12-20T15:04:48;9.80;73.10
55777;DHT22;54079;44.540;18.784;2023-12-20T15:07:15;9.80;74.00
55777;DHT22;54079;44.540;18.784;2023-12-20T15:09:41;9.70;74.70
55777;DHT22;54079;44.540;18.784;2023-12-20T15:12:11;9.40;75.80
55777;DHT22;54079;44.540;18.784;2023-12-20T15:14:38;9.40;76.50
55777;DHT22;54079;44.540;18.784;2023-12-20T15:17:04;9.50;76.70
55777;DHT22;54079;44.540;18.784;2023-12-20T15:19:33;9.40;78.40
55777;DHT22;54079;44.540;18.784;2023-12-20T15:21:59;9.30;79.50
55777;DHT22;54079;44.540;18.784;2023-12-20T15:24:25;9.30;77.80